Time;durP1;ratioP1;P1;durP2;ratioP2;P2;SDS_P1;SDS_P2;PMS_P1;PMS_P2;Temp;Humidity;BMP_temperature;BMP_pressure;BME280_temperature;BME280_humidity;BME280_pressure;Samples;Min_cycle;Max_cycle;Signal;HPM_P1;HPM_P2
2022/01/10 00:01:43;;;;;;;44.15;29.20;;;;;;;12.65;77.04;99579.47;5035569;28;20021;-78
2022/01/10 00:04:09;;;;;;;50.45;29.08;;;;;;;12.66;76.69;99576.59;5035517;28;20031;-78
2022/01/10 00:06:35;;;;;;;49.30;30.23;;;;;;;12.54;77.21;99556.31;5035085;28;20096;-76
2022/01/10 00:09:01;;;;;;;46.55;29.35;;;;;;;12.67;77.11;99575.59;5034509;28;20025;-78
2022/01/10 00:11:27;;;;;;;42.72;28.27;;;;;;;12.68;76.71;99566.50;5035509;28;20017;-76
2022/01/10 00:13:52;;;;;;;43.10;26.67;;;;;;;12.63;76.66;99560.75;5035452;28;20017;-76
2022/01/10 00:16:18;;;;;;;36.85;24.75;;;;;;;12.65;76.93;99558.75;5034775;28;20105;-77
2022/01/10 00:18:43;;;;;;;36.50;24.35;;;;;;;12.68;76.62;99558.41;5034860;28;20037;-77
2022/01/10 00:21:09;;;;;;;41.40;23.77;;;;;;;12.56;76.97;99543.53;5035123;28;20021;-77
2022/01/10 00:23:35;;;;;;;40.20;23.65;;;;;;;12.58;77.21;99557.69;5034358;28;20025;-77
2022/01/10 00:26:01;;;;;;;39.03;25.52;;;;;;;12.56;76.69;99554.34;5027086;28;20143;-77
2022/01/10 00:28:26;;;;;;;42.15;24.42;;;;;;;12.60;77.14;99555.66;5034742;28;20036;-77
2022/01/10 00:30:52;;;;;;;36.85;25.15;;;;;;;12.61;77.13;99553.81;5035530;28;20026;-76
2022/01/10 00:33:17;;;;;;;42.78;26.23;;;;;;;12.49;77.15;99558.69;5035005;28;20422;-77
2022/01/10 00:35:43;;;;;;;35.05;23.77;;;;;;;12.57;77.31;99558.69;5035261;28;20469;-77
2022/01/10 00:38:08;;;;;;;39.38;25.42;;;;;;;12.57;76.84;99556.84;5034170;28;20415;-76
2022/01/10 00:40:33;;;;;;;38.08;24.77;;;;;;;12.52;77.38;99551.09;5034252;28;20026;-76
2022/01/10 00:42:59;;;;;;;38.15;24.15;;;;;;;12.59;77.18;99553.16;5017054;28;20029;-78
2022/01/10 00:45:27;;;;;;;35.58;24.38;;;;;;;12.59;77.35;99548.59;5035176;28;20120;-76
2022/01/10 00:47:58;;;;;;;40.60;24.20;;;;;;;12.64;77.27;99553.50;5035485;28;20033;-77
2022/01/10 00:50:24;;;;;;;41.30;24.95;;;;;;;12.53;77.04;99557.34;5034925;28;20555;-77
2022/01/10 00:52:51;;;;;;;45.75;28.80;;;;;;;12.42;77.46;99552.25;5035053;28;20043;-76
2022/01/10 00:55:16;;;;;;;49.55;28.60;;;;;;;12.47;77.13;99552.63;5035116;28;20469;-77
2022/01/10 00:57:42;;;;;;;52.15;30.42;;;;;;;12.53;77.51;99555.50;5034225;28;20033;-78
2022/01/10 01:00:11;;;;;;;50.00;29.45;;;;;;;12.54;77.51;99545.53;5034436;28;20025;-76
2022/01/10 01:02:37;;;;;;;52.58;31.92;;;;;;;12.56;77.91;99554.34;5033885;28;20523;-77
2022/01/10 01:05:06;;;;;;;49.88;33.05;;;;;;;12.55;77.85;99558.88;5033605;28;20108;-77
2022/01/10 01:07:33;;;;;;;53.97;32.70;;;;;;;12.35;77.64;99557.44;5034186;28;20022;-77
2022/01/10 01:12:53;;;;;;;58.80;35.80;;;;;;;12.42;78.01;99541.44;4996917;28;20044;-77
2022/01/10 01:15:24;;;;;;;64.25;33.83;;;;;;;12.30;78.03;99524.72;5034506;28;20438;-76
2022/01/10 01:24:00;;;;;;;50.03;29.55;;;;;;;12.28;77.42;99529.44;4988168;28;20085;-78
2022/01/10 01:26:14;;;;;;;47.25;30.33;;;;;;;12.32;77.26;99532.69;5014550;28;20033;-78
2022/01/10 01:28:40;;;;;;;59.03;32.78;;;;;;;12.06;77.74;99521.09;5013937;28;20030;-77
2022/01/10 01:31:05;;;;;;;46.67;28.00;;;;;;;11.99;78.17;99524.41;5014000;28;20018;-76
2022/01/10 01:33:31;;;;;;;43.75;28.05;;;;;;;11.91;77.94;99524.38;5014618;28;20048;-78
2022/01/10 01:35:56;;;;;;;45.25;27.88;;;;;;;11.89;78.32;99518.34;4996018;28;20128;-77
2022/01/10 01:38:22;;;;;;;38.30;25.95;;;;;;;11.87;77.65;99525.69;5013052;28;20029;-77
2022/01/10 01:40:56;;;;;;;46.45;28.55;;;;;;;11.91;78.18;99527.09;4994449;28;20031;-77
2022/01/10 01:43:21;;;;;;;48.70;29.85;;;;;;;11.92;78.65;99525.25;4994220;28;20033;-77
2022/01/10 01:45:48;;;;;;;43.28;26.30;;;;;;;11.92;78.11;99523.41;4994374;28;20042;-77
2022/01/10 01:48:14;;;;;;;40.65;24.80;;;;;;;11.77;78.69;99521.44;4994364;28;20027;-77
2022/01/10 01:50:40;;;;;;;44.83;27.08;;;;;;;11.86;78.82;99518.63;4993896;28;20041;-77
2022/01/10 01:53:06;;;;;;;58.25;30.40;;;;;;;11.93;78.59;99516.97;4993790;28;20028;-77
2022/01/10 01:55:33;;;;;;;49.72;29.38;;;;;;;11.89;78.65;99523.72;5006747;28;20029;-78
2022/01/10 01:57:58;;;;;;;47.10;27.50;;;;;;;11.94;78.64;99516.00;4994039;28;20030;-77
2022/01/10 02:00:24;;;;;;;41.13;24.98;;;;;;;11.81;78.26;99510.19;4993935;28;20264;-76
2022/01/10 02:02:50;;;;;;;47.22;28.58;;;;;;;11.63;79.15;99514.75;4994216;28;20031;-76
2022/01/10 02:05:16;;;;;;;38.75;24.15;;;;;;;11.75;78.88;99510.81;4994459;28;20412;-76
2022/01/10 02:07:42;;;;;;;44.83;27.13;;;;;;;11.65;79.26;99510.03;4993963;28;20097;-76
2022/01/10 02:10:08;;;;;;;48.63;28.02;;;;;;;11.63;79.33;99522.84;4993603;28;20472;-78
2022/01/10 02:12:33;;;;;;;44.78;26.67;;;;;;;11.74;79.68;99524.47;4993449;28;20037;-78
2022/01/10 02:14:59;;;;;;;43.53;25.35;;;;;;;11.77;79.11;99527.66;4994390;28;20117;-76
2022/01/10 02:17:34;;;;;;;40.42;25.65;;;;;;;11.73;79.41;99523.63;5000721;28;20456;-76
2022/01/10 02:20:03;;;;;;;44.58;25.67;;;;;;;11.73;79.20;99531.69;5014087;28;20037;-76
2022/01/10 02:22:29;;;;;;;37.30;24.67;;;;;;;11.72;78.67;99521.06;5012270;28;20539;-75
2022/01/10 02:24:55;;;;;;;48.15;27.35;;;;;;;11.83;78.79;99523.50;5013661;28;20060;-75
2022/01/10 02:27:22;;;;;;;38.55;24.55;;;;;;;11.68;78.86;99531.28;5013456;28;20407;-77
2022/01/10 02:29:48;;;;;;;38.53;22.30;;;;;;;11.57;79.31;99531.53;5013928;28;20025;-78
2022/01/10 02:32:13;;;;;;;36.60;22.58;;;;;;;11.54;79.17;99523.78;5013503;28;20466;-76
2022/01/10 02:34:39;;;;;;;39.67;25.08;;;;;;;11.67;80.03;99523.38;5013350;28;20055;-76
2022/01/10 02:37:04;;;;;;;45.25;27.77;;;;;;;11.65;80.25;99520.00;5013065;28;20033;-76
2022/01/10 02:39:30;;;;;;;37.83;22.75;;;;;;;11.76;80.24;99533.22;5024894;28;20029;-76
2022/01/10 02:41:56;;;;;;;35.92;24.45;;;;;;;11.76;79.78;99520.59;5013721;28;20408;-77
2022/01/10 02:44:22;;;;;;;36.08;22.90;;;;;;;11.76;79.59;99528.69;5012922;28;20113;-78
2022/01/10 02:46:47;;;;;;;36.40;24.52;;;;;;;11.75;79.80;99537.75;5013250;28;20022;-75
2022/01/10 02:49:16;;;;;;;44.88;25.75;;;;;;;11.81;79.75;99534.44;5013111;28;20034;-76
2022/01/10 02:51:42;;;;;;;41.50;25.38;;;;;;;11.80;80.30;99535.41;5013308;28;20025;-78
2022/01/10 02:54:08;;;;;;;49.55;27.40;;;;;;;11.81;79.72;99537.13;5016260;28;20028;-78
2022/01/10 02:56:44;;;;;;;42.45;27.17;;;;;;;11.83;80.14;99535.09;5032285;28;20022;-76
2022/01/10 02:59:09;;;;;;;38.92;25.42;;;;;;;11.82;80.09;99538.81;5032789;28;20030;-76
2022/01/10 03:01:35;;;;;;;41.25;26.00;;;;;;;11.72;80.21;99535.38;5031936;28;20609;-77
2022/01/10 03:04:00;;;;;;;47.22;28.42;;;;;;;11.68;80.77;99538.53;5032656;28;20371;-76
2022/01/10 03:06:25;;;;;;;46.40;27.33;;;;;;;11.66;80.43;99541.38;5036445;28;20028;-76
2022/01/10 03:08:51;;;;;;;54.28;29.10;;;;;;;11.64;81.11;99532.63;5036681;28;20033;-76
2022/01/10 03:11:16;;;;;;;46.70;29.02;;;;;;;11.69;80.95;99541.06;5037386;28;20025;-76
2022/01/10 03:13:42;;;;;;;43.40;26.80;;;;;;;11.76;80.84;99539.47;5037531;28;20025;-76
2022/01/10 03:16:07;;;;;;;44.85;24.58;;;;;;;11.59;81.19;99548.38;5036289;28;20029;-76
2022/01/10 03:18:33;;;;;;;51.90;27.05;;;;;;;11.51;81.86;99548.34;5036195;28;20052;-76
2022/01/10 03:20:58;;;;;;;35.50;21.73;;;;;;;11.47;81.96;99555.03;5021020;28;20056;-76
2022/01/10 03:23:24;;;;;;;59.58;28.65;;;;;;;11.36;81.72;99557.97;5017098;28;20440;-76
2022/01/10 03:25:49;;;;;;;42.30;25.05;;;;;;;11.36;82.30;99557.97;5016451;28;20045;-76
2022/01/10 03:28:15;;;;;;;47.72;26.42;;;;;;;11.35;82.14;99559.81;5016228;28;20025;-77
2022/01/10 03:30:41;;;;;;;46.95;27.70;;;;;;;11.41;82.74;99561.03;5016040;28;20456;-76
2022/01/10 03:33:08;;;;;;;46.22;27.30;;;;;;;11.28;82.88;99558.72;5016479;28;20456;-76
2022/01/10 03:35:34;;;;;;;42.65;26.15;;;;;;;11.22;83.48;99553.16;5016677;28;20029;-76
2022/01/10 03:37:59;;;;;;;54.85;25.67;;;;;;;11.27;82.72;99540.06;5017685;28;20038;-77
2022/01/10 03:40:25;;;;;;;50.90;26.70;;;;;;;11.36;83.80;99566.03;5036741;28;20079;-77
2022/01/10 03:42:50;;;;;;;44.78;25.83;;;;;;;11.20;82.68;99552.44;5035396;28;20478;-78
2022/01/10 03:45:16;;;;;;;48.03;25.30;;;;;;;11.05;83.39;99567.44;5036242;28;20128;-78
2022/01/10 03:47:41;;;;;;;47.95;25.58;;;;;;;11.17;83.51;99568.91;5035624;28;20075;-76
2022/01/10 03:50:07;;;;;;;39.00;22.30;;;;;;;11.16;83.24;99561.84;5035927;28;20025;-76
2022/01/10 03:52:33;;;;;;;50.00;28.45;;;;;;;11.18;82.54;99567.91;5035954;28;20033;-76
2022/01/10 03:54:59;;;;;;;41.10;26.17;;;;;;;11.25;82.67;99566.31;5035900;28;20403;-76
2022/01/10 03:57:25;;;;;;;48.80;25.83;;;;;;;11.40;82.61;99570.13;5035783;28;20025;-76
2022/01/10 03:59:50;;;;;;;53.55;27.45;;;;;;;11.39;82.14;99557.66;5035435;28;20036;-76
2022/01/10 04:02:16;;;;;;;45.08;25.35;;;;;;;11.25;81.75;99544.78;5035559;28;20502;-76
2022/01/10 04:04:41;;;;;;;36.83;21.90;;;;;;;11.27;81.30;99566.97;5035942;28;20029;-76
2022/01/10 04:07:07;;;;;;;41.50;23.95;;;;;;;11.15;82.08;99562.84;5035469;28;20033;-77
2022/01/10 04:09:32;;;;;;;41.20;23.73;;;;;;;11.27;81.18;99586.66;5035998;28;20460;-77
2022/01/10 04:11:58;;;;;;;35.00;22.95;;;;;;;11.31;81.48;99589.91;5035597;28;20025;-76
2022/01/10 04:14:23;;;;;;;50.35;25.55;;;;;;;11.24;80.95;99581.59;5035361;28;20494;-75
2022/01/10 04:16:49;;;;;;;45.38;26.35;;;;;;;11.26;81.13;99584.13;5034324;28;20048;-76
2022/01/10 04:19:15;;;;;;;32.00;20.70;;;;;;;11.07;81.45;99589.69;5019196;28;20029;-77
2022/01/10 04:21:40;;;;;;;45.25;23.77;;;;;;;10.93;81.66;99583.81;5015551;28;20029;-76
2022/01/10 04:24:06;;;;;;;37.13;21.55;;;;;;;11.03;81.92;99593.66;5014843;28;20026;-76
2022/01/10 04:26:31;;;;;;;31.50;21.42;;;;;;;10.95;82.21;99596.28;5015544;28;20026;-78
2022/01/10 04:28:57;;;;;;;45.05;25.50;;;;;;;10.99;81.96;99584.19;5015572;28;20041;-77
2022/01/10 04:31:23;;;;;;;39.85;23.17;;;;;;;10.91;82.33;99591.22;5014809;28;20049;-77
2022/01/10 04:33:48;;;;;;;36.38;22.92;;;;;;;11.00;82.67;99593.97;5015376;28;20026;-77
2022/01/10 04:36:14;;;;;;;40.15;21.95;;;;;;;11.00;82.48;99593.97;5014977;28;20022;-77
2022/01/10 04:38:42;;;;;;;36.45;22.55;;;;;;;11.06;81.96;99593.34;5027364;28;20512;-78
2022/01/10 04:41:09;;;;;;;33.30;20.55;;;;;;;11.01;82.13;99601.06;5033853;28;20022;-76
2022/01/10 04:43:35;;;;;;;36.60;22.13;;;;;;;10.97;82.17;99608.56;5033386;28;20025;-77
2022/01/10 04:46:01;;;;;;;39.83;24.92;;;;;;;11.06;82.22;99604.97;5034547;28;20060;-76
2022/01/10 04:48:26;;;;;;;40.70;24.42;;;;;;;10.96;82.17;99598.81;5033838;28;20439;-77
2022/01/10 04:53:30;;;;;;;45.10;25.15;;;;;;;11.03;82.78;99615.19;5034931;28;20056;-77
2022/01/10 04:55:55;;;;;;;39.00;26.63;;;;;;;11.13;82.69;99611.41;5033687;28;20466;-76
2022/01/10 04:58:21;;;;;;;50.30;26.70;;;;;;;11.14;82.51;99607.72;5033762;28;20280;-78
2022/01/10 05:00:46;;;;;;;36.85;24.08;;;;;;;10.97;82.89;99605.03;5033556;28;20536;-75
2022/01/10 05:03:12;;;;;;;44.67;24.83;;;;;;;10.88;83.36;99607.66;5032481;28;20029;-76
2022/01/10 05:05:37;;;;;;;37.83;24.45;;;;;;;11.00;82.87;99616.34;5033392;28;20039;-75
2022/01/10 05:08:03;;;;;;;43.55;24.38;;;;;;;10.99;83.21;99616.47;5033206;28;20013;-75
2022/01/10 05:10:29;;;;;;;42.25;23.92;;;;;;;10.95;83.26;99607.03;5033562;28;20483;-75
2022/01/10 05:12:54;;;;;;;38.00;24.13;;;;;;;11.04;82.79;99628.47;5033084;28;20025;-77
2022/01/10 05:15:20;;;;;;;44.40;23.83;;;;;;;11.06;82.68;99625.66;5033241;28;20468;-76
2022/01/10 05:17:45;;;;;;;50.30;26.75;;;;;;;10.94;82.90;99611.56;5037133;28;20045;-76
2022/01/10 05:20:11;;;;;;;45.95;24.23;;;;;;;10.99;82.98;99624.56;5044365;28;20067;-76
2022/01/10 05:22:37;;;;;;;43.22;26.13;;;;;;;11.15;83.47;99619.34;5041870;28;20098;-76
2022/01/10 05:25:03;;;;;;;44.80;25.52;;;;;;;11.10;82.64;99627.03;5043126;28;20048;-75
2022/01/10 05:27:28;;;;;;;43.92;25.10;;;;;;;11.15;82.82;99620.19;5042748;28;20339;-76
2022/01/10 05:29:54;;;;;;;40.58;24.63;;;;;;;11.25;82.38;99625.50;5043051;28;20028;-77
2022/01/10 05:32:19;;;;;;;39.33;23.20;;;;;;;11.21;82.16;99634.88;5023454;28;20025;-76
2022/01/10 05:34:45;;;;;;;48.30;26.30;;;;;;;11.23;82.11;99636.41;5044238;28;20052;-76
2022/01/10 05:37:10;;;;;;;46.58;25.83;;;;;;;11.16;81.95;99627.25;5043781;28;20040;-76
2022/01/10 05:39:36;;;;;;;46.83;26.77;;;;;;;11.23;81.85;99627.50;5043820;28;20372;-76
2022/01/10 05:42:01;;;;;;;41.47;26.20;;;;;;;11.23;82.44;99644.50;5042405;28;20017;-76
2022/01/10 05:44:27;;;;;;;44.08;27.05;;;;;;;11.33;82.65;99639.88;5042959;28;20101;-78
2022/01/10 05:46:53;;;;;;;46.92;26.30;;;;;;;11.30;82.47;99639.34;5044494;28;20021;-76
2022/01/10 05:49:25;;;;;;;37.25;19.83;;;;;;;11.11;82.49;99634.09;5043144;28;20017;-76
2022/01/10 05:51:51;;;;;;;39.42;25.10;;;;;;;11.00;82.39;99642.41;5041439;28;20041;-78
2022/01/10 05:54:16;;;;;;;41.28;23.77;;;;;;;10.92;82.86;99641.28;5043546;28;20029;-77
2022/01/10 05:56:42;;;;;;;33.15;21.73;;;;;;;10.71;83.54;99635.34;5043283;28;20348;-76
2022/01/10 05:59:07;;;;;;;38.03;24.90;;;;;;;10.68;84.29;99641.00;5042035;28;20020;-76
2022/01/10 06:01:33;;;;;;;42.38;25.98;;;;;;;10.76;84.58;99659.09;5041983;28;20082;-76
2022/01/10 06:03:58;;;;;;;43.25;24.23;;;;;;;10.66;84.81;99655.59;5043124;28;20082;-78
2022/01/10 06:06:24;;;;;;;43.03;26.92;;;;;;;10.68;85.27;99659.84;5042718;28;20021;-77
2022/01/10 06:08:49;;;;;;;50.83;26.33;;;;;;;10.67;85.58;99658.13;5046603;28;20021;-77
2022/01/10 06:11:15;;;;;;;35.72;24.00;;;;;;;10.66;85.33;99669.06;5049254;28;20123;-77
2022/01/10 06:13:40;;;;;;;41.63;22.52;;;;;;;10.77;84.94;99669.69;5044717;28;20025;-78
2022/01/10 06:16:06;;;;;;;42.80;24.42;;;;;;;10.81;84.88;99665.72;5044927;28;20030;-77
2022/01/10 06:18:31;;;;;;;35.38;21.70;;;;;;;10.95;84.88;99666.22;5041718;28;20041;-77
2022/01/10 06:20:57;;;;;;;35.55;22.45;;;;;;;10.98;83.91;99665.94;5039876;28;20387;-77
2022/01/10 06:23:22;;;;;;;45.20;23.98;;;;;;;11.01;83.74;99658.38;5039101;28;20108;-78
2022/01/10 06:25:48;;;;;;;33.42;20.20;;;;;;;11.06;83.48;99652.56;5035562;28;20025;-78
2022/01/10 06:28:14;;;;;;;32.95;19.50;;;;;;;10.91;82.35;99650.38;5040817;28;20021;-77
2022/01/10 06:30:40;;;;;;;40.55;22.35;;;;;;;11.01;82.96;99652.16;5038115;28;20105;-78
2022/01/10 06:33:06;;;;;;;43.60;23.55;;;;;;;10.96;83.20;99662.50;5035482;28;20061;-78
2022/01/10 06:35:31;;;;;;;40.88;22.20;;;;;;;10.95;83.21;99658.97;5037509;28;20418;-78
2022/01/10 06:37:57;;;;;;;41.30;26.13;;;;;;;11.05;83.65;99659.78;5037531;28;20022;-78
2022/01/10 06:40:22;;;;;;;39.72;22.50;;;;;;;10.93;83.52;99653.75;5036405;28;20049;-78
2022/01/10 06:42:48;;;;;;;33.40;19.15;;;;;;;10.91;83.78;99657.59;5037568;28;20045;-78
2022/01/10 06:45:14;;;;;;;34.25;21.25;;;;;;;10.92;82.51;99657.44;5031742;28;20459;-76
2022/01/10 06:47:42;;;;;;;38.20;20.20;;;;;;;10.80;82.87;99647.88;5036041;28;20014;-80
2022/01/10 06:50:08;;;;;;;31.95;18.40;;;;;;;10.92;82.25;99662.81;5038314;28;20028;-79
2022/01/10 06:52:34;;;;;;;33.40;20.02;;;;;;;10.93;82.39;99660.97;5034916;28;20060;-79
2022/01/10 06:55:00;;;;;;;30.20;19.02;;;;;;;10.98;82.92;99665.94;5032476;28;20025;-78
2022/01/10 06:57:26;;;;;;;26.45;15.38;;;;;;;10.93;82.34;99661.84;5035669;28;20033;-78
2022/01/10 06:59:52;;;;;;;32.67;19.33;;;;;;;10.90;82.44;99661.28;5033989;28;20064;-79
2022/01/10 07:02:17;;;;;;;25.25;16.65;;;;;;;10.96;82.06;99667.91;5033572;28;20025;-79
2022/01/10 07:04:43;;;;;;;34.92;19.42;;;;;;;10.96;82.64;99679.50;5038624;28;20406;-78
2022/01/10 07:07:09;;;;;;;30.52;17.80;;;;;;;10.95;82.59;99671.59;5037922;28;20129;-77
2022/01/10 07:09:34;;;;;;;32.30;19.70;;;;;;;10.97;83.42;99673.16;5037171;28;20099;-77
2022/01/10 07:12:01;;;;;;;51.72;27.33;;;;;;;10.85;83.15;99685.09;5039135;28;20104;-76
2022/01/10 07:14:28;;;;;;;54.58;25.92;;;;;;;10.89;84.16;99690.03;5039174;28;20021;-78
2022/01/10 07:16:54;;;;;;;34.47;19.80;;;;;;;10.90;84.04;99691.72;5034805;28;20048;-76
2022/01/10 07:19:20;;;;;;;42.63;26.83;;;;;;;11.06;84.01;99690.22;5033098;28;20096;-78
2022/01/10 07:21:45;;;;;;;27.90;17.70;;;;;;;11.10;83.61;99681.69;5037446;28;20018;-78
2022/01/10 07:24:11;;;;;;;32.80;20.17;;;;;;;11.14;83.27;99688.47;5031375;28;20468;-77
2022/01/10 07:26:36;;;;;;;32.53;21.58;;;;;;;11.17;82.58;99677.41;5034533;28;20485;-78
2022/01/10 07:29:04;;;;;;;32.55;20.05;;;;;;;11.14;82.59;99693.00;5038061;28;20021;-78
2022/01/10 07:31:30;;;;;;;32.17;18.63;;;;;;;11.17;82.16;99685.47;5036910;28;20025;-78
2022/01/10 07:33:56;;;;;;;36.13;19.00;;;;;;;11.12;82.87;99681.53;5037231;28;20485;-78
2022/01/10 07:36:22;;;;;;;27.23;16.90;;;;;;;11.15;83.07;99690.16;5035952;28;20048;-79
2022/01/10 07:38:48;;;;;;;23.75;13.57;;;;;;;11.20;82.20;99682.47;5037557;28;20479;-78
2022/01/10 07:41:13;;;;;;;19.65;12.57;;;;;;;11.14;81.59;99680.38;5036181;28;20032;-77
2022/01/10 07:43:39;;;;;;;25.05;12.02;;;;;;;11.04;81.99;99678.78;5037006;28;20014;-77
2022/01/10 07:46:05;;;;;;;18.35;10.85;;;;;;;10.96;82.26;99674.13;5032392;28;20029;-77
2022/01/10 07:48:35;;;;;;;17.45;12.02;;;;;;;10.89;82.78;99676.56;5015506;28;20116;-82
2022/01/10 07:51:01;;;;;;;18.98;11.60;;;;;;;10.88;83.21;99676.72;5032280;28;20082;-81
2022/01/10 07:53:26;;;;;;;18.65;11.13;;;;;;;10.81;83.72;99681.88;5035369;28;20075;-79
2022/01/10 07:55:52;;;;;;;21.95;11.93;;;;;;;10.70;84.25;99689.28;5030591;28;20026;-79
2022/01/10 07:58:18;;;;;;;16.58;9.25;;;;;;;10.67;84.32;99687.72;5035863;28;20032;-79
2022/01/10 08:00:44;;;;;;;16.70;10.32;;;;;;;10.72;85.36;99698.88;5035490;28;20022;-79
2022/01/10 08:03:09;;;;;;;17.83;10.50;;;;;;;10.76;85.04;99700.25;5034235;28;20083;-78
2022/01/10 08:05:35;;;;;;;14.88;9.63;;;;;;;10.75;86.07;99705.81;5027554;28;20022;-76
2022/01/10 08:08:00;;;;;;;15.95;10.52;;;;;;;10.84;86.35;99697.69;5015394;28;20021;-75
2022/01/10 08:10:26;;;;;;;18.52;10.00;;;;;;;10.75;86.30;99690.53;5015928;28;20021;-79
2022/01/10 08:12:51;;;;;;;16.30;10.30;;;;;;;10.82;85.79;99694.28;5016265;28;20026;-77
2022/01/10 08:15:17;;;;;;;36.45;18.13;;;;;;;10.83;86.09;99701.38;5016748;28;20030;-77
2022/01/10 08:17:43;;;;;;;23.52;11.80;;;;;;;10.90;85.33;99702.47;5026047;28;20190;-77
2022/01/10 08:20:09;;;;;;;21.85;12.02;;;;;;;10.91;85.51;99698.81;5034781;28;20597;-77
2022/01/10 08:22:35;;;;;;;19.90;11.90;;;;;;;11.00;84.30;99691.69;5035299;28;20459;-78
2022/01/10 08:25:01;;;;;;;20.88;11.88;;;;;;;10.98;84.14;99698.22;5034583;28;20028;-77
2022/01/10 08:27:26;;;;;;;20.33;12.50;;;;;;;10.88;84.61;99682.97;5035088;28;20103;-78
2022/01/10 08:29:52;;;;;;;21.13;13.38;;;;;;;10.91;84.43;99681.81;5035297;28;20032;-79
2022/01/10 08:32:18;;;;;;;18.85;11.98;;;;;;;10.91;84.51;99698.81;5035139;28;20453;-79
2022/01/10 08:34:43;;;;;;;22.40;13.57;;;;;;;10.80;84.66;99672.09;5034231;28;20067;-77
2022/01/10 08:37:09;;;;;;;21.45;14.27;;;;;;;10.74;84.96;99666.44;5034612;28;20160;-77
2022/01/10 08:39:35;;;;;;;25.50;12.77;;;;;;;10.83;85.71;99662.88;5034606;28;20135;-79
2022/01/10 08:42:01;;;;;;;31.85;17.90;;;;;;;10.75;85.89;99670.84;5034932;28;20021;-78
2022/01/10 08:44:27;;;;;;;22.30;13.80;;;;;;;10.61;86.11;99647.97;5033934;28;20026;-82
2022/01/10 08:46:52;;;;;;;18.75;13.15;;;;;;;10.77;86.79;99674.22;5035056;28;20463;-86
2022/01/10 08:49:18;;;;;;;23.02;12.98;;;;;;;10.70;86.53;99671.28;5035282;28;20025;-80
2022/01/10 08:51:45;;;;;;;20.40;13.82;;;;;;;10.68;86.80;99667.91;5034260;28;20021;-80
2022/01/10 08:54:11;;;;;;;25.77;16.45;;;;;;;10.68;87.04;99675.97;5034820;28;20025;-84
2022/01/10 08:56:36;;;;;;;21.98;12.65;;;;;;;10.69;87.16;99677.69;5034664;28;20021;-82
2022/01/10 08:59:04;;;;;;;22.67;12.80;;;;;;;10.63;86.33;99672.03;5035166;28;20026;-81
2022/01/10 09:01:31;;;;;;;26.13;14.95;;;;;;;10.60;86.68;99666.97;5034992;28;20064;-79
2022/01/10 09:03:57;;;;;;;20.92;13.52;;;;;;;10.54;87.26;99668.41;5033515;28;20474;-79
2022/01/10 09:06:23;;;;;;;21.48;13.32;;;;;;;10.47;86.99;99656.53;5034014;28;20026;-80
2022/01/10 09:08:49;;;;;;;24.77;13.65;;;;;;;10.46;87.15;99662.91;5034078;28;20112;-79
2022/01/10 09:11:15;;;;;;;23.02;13.98;;;;;;;10.37;87.51;99653.88;5034185;28;20151;-78
2022/01/10 09:13:41;;;;;;;24.77;14.73;;;;;;;10.40;87.72;99650.06;5034053;28;20087;-80
2022/01/10 09:16:08;;;;;;;24.60;13.55;;;;;;;10.34;87.98;99646.13;5034043;28;20021;-80
2022/01/10 09:18:34;;;;;;;20.85;12.93;;;;;;;10.36;87.92;99635.22;5034102;28;20052;-76
2022/01/10 09:21:00;;;;;;;27.38;14.88;;;;;;;10.36;88.37;99648.69;5033860;28;20025;-77
2022/01/10 09:23:26;;;;;;;23.23;13.65;;;;;;;10.38;88.78;99635.94;5017589;28;20030;-76
2022/01/10 09:25:51;;;;;;;22.33;13.77;;;;;;;10.47;88.41;99650.31;5031463;28;20031;-77
2022/01/10 09:28:18;;;;;;;21.27;12.50;;;;;;;10.43;88.31;99657.00;5034079;28;20088;-77
2022/01/10 09:30:44;;;;;;;28.17;16.30;;;;;;;10.47;88.14;99663.75;5033773;28;20559;-77
2022/01/10 09:33:10;;;;;;;17.73;12.10;;;;;;;10.55;87.97;99664.69;5033269;28;20022;-77
2022/01/10 09:35:36;;;;;;;19.90;11.10;;;;;;;10.63;88.18;99655.91;5015298;28;20489;-78
2022/01/10 09:38:02;;;;;;;18.05;12.07;;;;;;;10.66;88.15;99666.38;5032590;28;20040;-78
2022/01/10 09:40:27;;;;;;;20.02;11.70;;;;;;;10.69;86.85;99658.84;5032753;28;20033;-77
2022/01/10 09:42:53;;;;;;;17.02;11.82;;;;;;;10.74;86.74;99647.63;5032615;28;20053;-78
2022/01/10 09:45:18;;;;;;;21.92;12.25;;;;;;;10.89;87.16;99663.13;5014805;28;20376;-77
2022/01/10 09:47:44;;;;;;;20.98;12.77;;;;;;;11.06;86.90;99652.56;5032628;28;20487;-78
2022/01/10 09:50:15;;;;;;;18.80;12.07;;;;;;;11.11;86.14;99671.78;5033091;28;20022;-78
2022/01/10 09:52:42;;;;;;;19.77;11.23;;;;;;;11.13;85.22;99669.78;5035447;28;20052;-78
2022/01/10 09:55:08;;;;;;;19.42;13.15;;;;;;;11.11;84.90;99650.25;5035111;28;20025;-78
2022/01/10 09:57:33;;;;;;;19.75;11.93;;;;;;;11.15;84.49;99689.31;5033683;28;20079;-79
2022/01/10 09:59:59;;;;;;;16.33;10.82;;;;;;;11.15;84.10;99681.25;5033061;28;21351;-77
2022/01/10 10:02:33;;;;;;;22.77;12.10;;;;;;;11.10;84.04;99670.09;5032867;28;20026;-78
2022/01/10 10:05:01;;;;;;;22.40;13.52;;;;;;;10.99;84.19;99673.81;5033904;28;20025;-77
2022/01/10 10:07:26;;;;;;;26.25;14.88;;;;;;;11.16;84.39;99685.63;5033206;28;20131;-77
2022/01/10 10:09:56;;;;;;;27.15;12.70;;;;;;;11.20;84.05;99684.31;5033605;28;20100;-77
2022/01/10 10:12:22;;;;;;;22.58;13.35;;;;;;;11.19;84.17;99688.03;5032586;28;20051;-79
2022/01/10 10:14:48;;;;;;;23.13;14.27;;;;;;;11.15;84.50;99657.03;5020265;28;21497;-77
2022/01/10 10:17:18;;;;;;;24.30;15.02;;;;;;;11.18;84.23;99684.47;5029870;28;20049;-79
2022/01/10 10:19:46;;;;;;;23.33;16.85;;;;;;;11.30;84.25;99677.88;5032547;28;20021;-79
2022/01/10 10:22:15;;;;;;;22.58;13.52;;;;;;;11.32;84.76;99685.78;5026007;28;20029;-78
2022/01/10 10:24:40;;;;;;;22.92;13.13;;;;;;;11.40;83.19;99675.13;5032812;28;20465;-78
2022/01/10 10:27:07;;;;;;;22.77;15.13;;;;;;;11.44;83.44;99682.72;5032867;28;20021;-77
2022/01/10 10:29:33;;;;;;;22.55;13.98;;;;;;;11.50;83.42;99681.25;5033690;28;20099;-79
2022/01/10 10:32:02;;;;;;;25.83;15.65;;;;;;;11.46;83.84;99666.44;5033242;28;20029;-78
2022/01/10 10:34:29;;;;;;;27.27;16.60;;;;;;;11.32;83.18;99651.66;5033082;28;20073;-79
2022/01/10 10:37:14;;;;;;;30.60;17.42;;;;;;;11.60;82.85;99673.09;5033685;28;20072;-78
2022/01/10 10:39:42;;;;;;;29.13;15.35;;;;;;;11.43;83.16;99655.97;5032986;28;20104;-77
2022/01/10 10:42:10;;;;;;;22.00;14.65;;;;;;;11.62;83.19;99665.75;5032841;28;20110;-77
2022/01/10 10:44:36;;;;;;;21.98;14.23;;;;;;;11.61;82.65;99666.72;5032870;28;20026;-78
2022/01/10 10:47:03;;;;;;;21.02;14.25;;;;;;;11.69;82.38;99666.78;5033050;28;20561;-78
2022/01/10 10:49:34;;;;;;;28.98;15.57;;;;;;;11.57;82.53;99641.94;5033120;28;20105;-79
2022/01/10 10:52:02;;;;;;;26.15;16.25;;;;;;;11.76;82.46;99679.53;5032315;28;20084;-78
2022/01/10 10:54:31;;;;;;;31.55;17.90;;;;;;;11.70;82.26;99658.59;5032411;28;20022;-78
2022/01/10 10:56:59;;;;;;;32.80;20.67;;;;;;;11.87;82.32;99681.97;5032360;28;20020;-78
2022/01/10 10:59:29;;;;;;;32.60;19.33;;;;;;;11.81;81.81;99684.44;5032828;28;20026;-77
2022/01/10 11:01:55;;;;;;;29.60;17.00;;;;;;;11.85;81.61;99689.38;5014443;28;20030;-76
2022/01/10 11:04:21;;;;;;;38.47;18.85;;;;;;;11.76;82.05;99687.59;5032786;28;20033;-78
2022/01/10 11:06:47;;;;;;;29.48;17.73;;;;;;;11.58;82.54;99672.41;5032646;28;20026;-76
2022/01/10 11:09:13;;;;;;;27.02;17.52;;;;;;;11.56;82.49;99687.91;5032883;28;20478;-77
2022/01/10 11:11:42;;;;;;;35.20;19.88;;;;;;;11.38;82.97;99687.88;5012503;28;20399;-79
2022/01/10 11:14:11;;;;;;;28.48;17.83;;;;;;;11.45;83.65;99692.50;5032511;28;20400;-78
2022/01/10 11:16:38;;;;;;;29.05;17.70;;;;;;;11.36;83.88;99693.41;5032449;28;20109;-77
2022/01/10 11:19:19;;;;;;;31.95;18.58;;;;;;;11.30;84.43;99698.56;5032271;28;20032;-78
2022/01/10 11:22:04;;;;;;;33.97;18.42;;;;;;;11.28;85.22;99696.00;5032331;28;20403;-77
2022/01/10 11:24:52;;;;;;;34.72;17.42;;;;;;;11.29;84.73;99707.63;5030261;28;20100;-77